Tacoma, WA (98403)

4:10 AM PDT on September 01, 2015 (GMT -0700)
APRSWXNET | | Change Station
CLOSE
Current Station
Personal Weather Station
Location: Tacoma, WA
Elevation: 275 ft
Nearby Weather Stations

Elev 275 ft 47.26 °N, 122.47 °W | Updated 21 minutes ago

Overcast
Overcast
62 °F
Feels Like 62 °F
N
2
Wind Variable Wind from South
Gusts 6.0 mph

Today
High -- | Low -- °F
--% Chance of Precip.
Yesterday
High -- | Low -- °F
Precip. -- in
6:28 AM 7:50 PM
Waning Gibbous, 89% visible
Pressure 29.90 in
Visibility 10.0 miles
Clouds Few 3500 ft
Mostly Cloudy 4300 ft
Overcast 5500 ft
Dew Point 54 °F
Humidity 76%
Rainfall in
Snow Depth Not available.
UV 0 out of 12
Pollen .30 out of 12
Air Quality Not available.
Flu Activity Not available.
METAR KTIW 011053Z AUTO 17008KT 10SM FEW035 BKN043 OVC055 17/12 A2990 RMK AO2 SLP123 T01670122
Pressure 29.90 in
Visibility 10.0 miles
Clouds Few 3500 ft
Mostly Cloudy 4300 ft
Overcast 5500 ft
Dew Point 54 °F
Humidity 76%
Rainfall in
Snow Depth Not available.
UV 0 out of 12
Pollen .30 out of 12
Air Quality Not available.
Flu Activity Not available.
METAR KTIW 011053Z AUTO 17008KT 10SM FEW035 BKN043 OVC055 17/12 A2990 RMK AO2 SLP123 T01670122

10-Day Weather Forecast

×

Almanac

Astronomy

Sep. 01, 2015 Rise Set
Actual Time
Civil Twilight
Nautical Twilight
Astronomical Twilight
Moon
Length of Visible Light
Length of Day
Tomorrow will be .
, % of the Moon is Illuminated

Today's Extremes

State Highs State Lows

Community

WunderPhotos

Upload Photos

1,851,501 photos uploaded!

WunderBlogs® & News

Nearby

Air Quality

  Air Quality AQ Index Pollutant
Not available.

Snow Depth

Station Depth Elevation

Earthquake Activity

City Distance Mag. Time & Date
Minimum magnitude displayed is 2.5.

Coastal Water Temperatures

Place Temperature

Stations

Nearby Weather Stations

Station Location Temp. Windchill Dew Point Humidity Wind Precip. Elev Updated Type